Time;durP1;ratioP1;P1;durP2;ratioP2;P2;SDS_P1;SDS_P2;PMS_P1;PMS_P2;Temp;Humidity;BMP_temperature;BMP_pressure;BME280_temperature;BME280_humidity;BME280_pressure;Samples;Min_cycle;Max_cycle;Signal;HPM_P1;HPM_P2
2022/04/11 00:02:09;;;;;;;5.78;2.58;;;3.30;99.90;;;;;;5042513;28;20045;-41
2022/04/11 00:04:36;;;;;;;4.57;2.05;;;3.30;99.90;;;;;;5045682;28;20049;-43
2022/04/11 00:07:03;;;;;;;5.05;2.13;;;3.20;99.90;;;;;;5042143;28;20052;-40
2022/04/11 00:09:29;;;;;;;3.65;2.33;;;3.20;99.90;;;;;;5052334;28;20052;-43
2022/04/11 00:11:56;;;;;;;5.28;2.28;;;3.20;99.90;;;;;;5050573;28;20136;-42
2022/04/11 00:14:23;;;;;;;4.82;2.30;;;3.20;99.90;;;;;;5049944;28;20049;-41
2022/04/11 00:16:49;;;;;;;4.00;1.90;;;3.10;99.90;;;;;;5050507;28;20049;-41
2022/04/11 00:19:17;;;;;;;3.50;2.55;;;3.10;99.90;;;;;;5045222;28;20050;-42
2022/04/11 00:21:44;;;;;;;5.65;2.95;;;3.10;99.90;;;;;;5050231;28;20497;-41
2022/04/11 00:24:11;;;;;;;5.38;2.60;;;3.00;99.90;;;;;;5045880;28;20049;-40
2022/04/11 00:26:38;;;;;;;6.55;2.88;;;2.90;99.90;;;;;;5052503;28;20524;-40
2022/04/11 00:29:04;;;;;;;4.75;3.10;;;2.90;99.90;;;;;;5043249;28;20059;-42
2022/04/11 00:31:31;;;;;;;6.70;3.58;;;2.80;99.90;;;;;;5044615;28;20040;-40
2022/04/11 00:33:58;;;;;;;4.78;3.47;;;2.70;99.90;;;;;;5042603;28;20053;-41
2022/04/11 00:36:26;;;;;;;5.32;3.00;;;2.60;99.90;;;;;;5047909;28;20041;-42
2022/04/11 00:38:52;;;;;;;7.85;2.83;;;2.60;99.90;;;;;;5041488;28;20451;-39
2022/04/11 00:41:19;;;;;;;5.47;3.40;;;2.50;99.90;;;;;;5038270;28;20041;-42
2022/04/11 00:43:46;;;;;;;6.03;3.60;;;2.50;99.90;;;;;;5044088;28;20048;-41
2022/04/11 00:46:12;;;;;;;5.50;3.70;;;2.50;99.90;;;;;;5043890;28;20482;-42
2022/04/11 00:48:40;;;;;;;7.25;3.85;;;2.60;99.90;;;;;;5040612;28;20071;-42
2022/04/11 00:51:07;;;;;;;6.32;3.70;;;2.50;99.90;;;;;;5038583;28;20044;-41
2022/04/11 00:53:37;;;;;;;5.35;3.38;;;2.60;99.90;;;;;;5041890;28;20041;-41
2022/04/11 00:56:04;;;;;;;8.98;3.75;;;2.50;99.90;;;;;;5041725;28;20477;-41
2022/04/11 00:58:31;;;;;;;6.20;3.95;;;2.50;99.90;;;;;;5047433;28;20040;-42
2022/04/11 01:00:58;;;;;;;4.90;3.75;;;2.50;99.90;;;;;;5042864;28;20132;-39
2022/04/11 01:03:25;;;;;;;8.05;3.15;;;2.50;99.90;;;;;;5043690;28;20482;-42
2022/04/11 01:05:51;;;;;;;5.78;3.60;;;2.50;99.90;;;;;;5041906;28;20724;-41
2022/04/11 01:08:18;;;;;;;6.43;3.58;;;2.50;99.90;;;;;;5051389;28;20049;-40
2022/04/11 01:10:46;;;;;;;5.43;3.55;;;2.50;99.90;;;;;;5044947;28;20049;-41
2022/04/11 01:13:13;;;;;;;6.68;3.40;;;2.40;99.90;;;;;;5044809;28;20055;-41
2022/04/11 01:15:39;;;;;;;5.15;2.80;;;2.40;99.90;;;;;;5043281;28;20056;-42
2022/04/11 01:18:06;;;;;;;5.28;2.97;;;2.40;99.90;;;;;;5047636;28;20055;-38
2022/04/11 01:20:33;;;;;;;7.70;3.47;;;2.40;99.90;;;;;;5035567;28;20054;-39
2022/04/11 01:23:01;;;;;;;4.22;2.72;;;2.40;99.90;;;;;;5040427;28;20132;-40
2022/04/11 01:25:28;;;;;;;6.35;3.65;;;2.40;99.90;;;;;;5041100;28;20049;-41
2022/04/11 01:27:55;;;;;;;4.93;3.13;;;2.40;99.90;;;;;;5035896;28;20049;-42
2022/04/11 01:30:24;;;;;;;5.18;3.33;;;2.40;99.90;;;;;;5045986;28;20045;-43
2022/04/11 01:32:51;;;;;;;4.40;3.25;;;2.40;99.90;;;;;;5038946;28;20045;-40
2022/04/11 01:35:19;;;;;;;7.63;3.65;;;2.40;99.90;;;;;;5042003;28;20051;-42
2022/04/11 01:37:45;;;;;;;3.72;2.42;;;2.30;99.90;;;;;;5037558;28;20401;-41
2022/04/11 01:40:14;;;;;;;5.88;3.33;;;2.30;99.90;;;;;;5065623;28;20401;-42
2022/04/11 01:42:42;;;;;;;4.18;3.00;;;2.30;99.90;;;;;;5055925;28;20067;-41
2022/04/11 01:45:10;;;;;;;6.28;2.83;;;2.30;99.90;;;;;;5044824;28;20099;-42
2022/04/11 01:47:38;;;;;;;5.05;3.05;;;2.30;99.90;;;;;;5038389;28;20045;-42
2022/04/11 01:50:05;;;;;;;5.20;3.20;;;2.30;99.90;;;;;;5041922;28;20051;-41
2022/04/11 01:52:32;;;;;;;5.22;3.00;;;2.30;99.90;;;;;;5037399;28;20129;-42
2022/04/11 01:54:58;;;;;;;4.07;2.80;;;2.20;99.90;;;;;;5040268;28;20046;-39
2022/04/11 01:57:26;;;;;;;3.47;2.75;;;2.20;99.90;;;;;;5033349;28;20049;-40
2022/04/11 01:59:53;;;;;;;4.85;3.00;;;2.20;99.90;;;;;;5040819;28;20549;-41
2022/04/11 02:02:20;;;;;;;4.03;3.20;;;2.20;99.90;;;;;;5045845;28;20041;-40
2022/04/11 02:04:46;;;;;;;4.90;3.20;;;2.20;99.90;;;;;;5035846;28;20060;-40
2022/04/11 02:07:13;;;;;;;7.28;4.22;;;2.20;99.90;;;;;;5047997;28;20045;-41
2022/04/11 02:09:40;;;;;;;7.45;4.35;;;2.20;99.90;;;;;;5037735;28;20049;-42
2022/04/11 02:12:07;;;;;;;7.68;3.90;;;2.10;99.90;;;;;;5046807;28;20053;-42
2022/04/11 02:14:35;;;;;;;4.75;3.42;;;2.10;99.90;;;;;;5041009;28;20075;-39
2022/04/11 02:17:02;;;;;;;5.85;3.60;;;2.10;99.90;;;;;;5050785;28;20106;-42
2022/04/11 02:19:29;;;;;;;4.55;3.72;;;2.10;99.90;;;;;;5042251;28;20511;-41
2022/04/11 02:21:55;;;;;;;5.10;3.50;;;2.00;99.90;;;;;;5049674;28;20037;-39
2022/04/11 02:24:22;;;;;;;5.38;3.40;;;2.10;99.90;;;;;;5046141;28;20044;-42
2022/04/11 02:26:49;;;;;;;7.90;3.75;;;2.00;99.90;;;;;;5050357;28;20075;-42
2022/04/11 02:29:15;;;;;;;6.30;3.67;;;2.00;99.90;;;;;;5046286;28;20045;-42
2022/04/11 02:31:43;;;;;;;5.50;3.45;;;2.10;99.90;;;;;;5041861;28;20041;-42
2022/04/11 02:34:10;;;;;;;6.22;3.95;;;2.10;99.90;;;;;;5041739;28;20037;-39
2022/04/11 02:36:37;;;;;;;4.57;3.65;;;2.00;99.90;;;;;;5046882;28;20049;-42
2022/04/11 02:39:03;;;;;;;6.45;4.22;;;2.10;99.90;;;;;;5045497;28;20064;-40
2022/04/11 02:41:30;;;;;;;6.13;3.85;;;2.10;99.90;;;;;;5049402;28;20076;-41
2022/04/11 02:43:57;;;;;;;5.47;4.05;;;2.10;99.90;;;;;;5041400;28;20056;-42
2022/04/11 02:46:23;;;;;;;5.57;4.18;;;2.00;99.90;;;;;;5053641;28;20042;-42
2022/04/11 02:48:51;;;;;;;9.90;4.30;;;2.00;99.90;;;;;;5049591;28;20049;-42
2022/04/11 02:51:18;;;;;;;5.40;4.30;;;2.00;99.90;;;;;;5048740;28;20478;-41
2022/04/11 02:53:45;;;;;;;5.40;3.60;;;2.00;99.90;;;;;;5044527;28;20407;-42
2022/04/11 02:56:11;;;;;;;5.28;3.58;;;2.00;99.90;;;;;;5040754;28;20052;-41
2022/04/11 02:58:38;;;;;;;3.88;2.80;;;2.00;99.90;;;;;;5044599;28;20128;-42
2022/04/11 03:01:05;;;;;;;5.60;3.10;;;2.00;99.90;;;;;;5048751;28;20097;-41
2022/04/11 03:03:31;;;;;;;5.25;3.25;;;2.00;99.90;;;;;;5050977;28;20412;-41
2022/04/11 03:06:00;;;;;;;5.22;3.05;;;2.00;99.90;;;;;;5051149;28;20127;-41
2022/04/11 03:08:27;;;;;;;6.68;3.30;;;2.00;99.90;;;;;;5044677;28;20045;-42
2022/04/11 03:10:54;;;;;;;5.63;3.45;;;1.90;99.90;;;;;;5045273;28;20078;-44
2022/04/11 03:13:21;;;;;;;3.03;2.55;;;1.90;99.90;;;;;;5050251;28;20045;-43
2022/04/11 03:15:48;;;;;;;5.88;3.45;;;1.90;99.90;;;;;;5037897;28;20049;-43
2022/04/11 03:18:14;;;;;;;4.15;3.17;;;1.90;99.90;;;;;;5046694;28;20056;-43
2022/04/11 03:20:41;;;;;;;5.38;2.90;;;1.90;99.90;;;;;;5050545;28;20052;-44
2022/04/11 03:23:09;;;;;;;4.57;3.03;;;1.90;99.90;;;;;;5049446;28;20064;-42
2022/04/11 03:25:36;;;;;;;3.05;2.47;;;1.80;99.90;;;;;;5053990;28;20053;-43
2022/04/11 03:28:03;;;;;;;4.30;3.10;;;1.90;99.90;;;;;;5051022;28;20052;-43
2022/04/11 03:30:30;;;;;;;4.20;2.72;;;1.80;99.90;;;;;;5046640;28;20408;-44
2022/04/11 03:32:57;;;;;;;7.13;2.90;;;1.80;99.90;;;;;;5046742;28;20063;-41
2022/04/11 03:35:24;;;;;;;8.32;3.00;;;1.80;99.90;;;;;;5047776;28;20053;-42
2022/04/11 03:37:50;;;;;;;4.38;2.60;;;1.80;99.90;;;;;;5045162;28;20049;-44
2022/04/11 03:40:18;;;;;;;6.43;3.10;;;1.80;99.90;;;;;;5047555;28;20057;-42
2022/04/11 03:42:45;;;;;;;3.67;2.25;;;1.80;99.90;;;;;;5057105;28;20050;-42
2022/04/11 03:45:12;;;;;;;3.58;2.50;;;1.80;99.90;;;;;;5049750;28;20053;-40
2022/04/11 03:47:39;;;;;;;7.25;2.83;;;1.80;99.90;;;;;;5041970;28;20524;-41
2022/04/11 03:50:06;;;;;;;5.10;2.78;;;1.80;99.90;;;;;;5044927;28;20044;-44
2022/04/11 03:52:33;;;;;;;4.68;2.80;;;1.80;99.90;;;;;;5047806;28;20040;-40
2022/04/11 03:55:00;;;;;;;8.48;3.50;;;1.80;99.90;;;;;;5051180;28;20060;-41
2022/04/11 03:57:28;;;;;;;5.65;2.75;;;1.80;99.90;;;;;;5042493;28;20050;-41
2022/04/11 03:59:55;;;;;;;5.18;2.50;;;1.80;99.90;;;;;;5054090;28;20045;-41
2022/04/11 04:02:21;;;;;;;5.10;2.90;;;1.80;99.90;;;;;;5044794;28;20132;-42
2022/04/11 04:04:48;;;;;;;3.97;2.65;;;1.90;99.90;;;;;;5052634;28;20404;-41
2022/04/11 04:07:15;;;;;;;5.57;2.38;;;1.90;99.90;;;;;;5058792;28;20057;-42
2022/04/11 04:09:41;;;;;;;8.65;3.22;;;1.80;99.90;;;;;;5042883;28;20041;-41
2022/04/11 04:12:09;;;;;;;3.40;2.83;;;1.80;99.90;;;;;;5042318;28;20124;-40
2022/04/11 04:14:38;;;;;;;3.65;2.53;;;1.90;99.90;;;;;;5042511;28;20041;-41
2022/04/11 04:17:05;;;;;;;4.85;2.50;;;1.90;99.90;;;;;;5045800;28;20057;-41
2022/04/11 04:19:31;;;;;;;5.40;2.65;;;1.90;99.90;;;;;;5051710;28;20132;-41
2022/04/11 04:21:58;;;;;;;4.15;2.60;;;1.90;99.90;;;;;;5050570;28;20049;-41
2022/04/11 04:24:25;;;;;;;5.85;3.40;;;1.90;99.90;;;;;;5046213;28;20052;-42
2022/04/11 04:26:52;;;;;;;3.17;2.20;;;1.90;99.90;;;;;;5042520;28;20397;-40
2022/04/11 04:29:18;;;;;;;4.55;2.70;;;1.90;99.90;;;;;;5046634;28;20059;-40
2022/04/11 04:31:47;;;;;;;3.50;2.78;;;2.00;99.90;;;;;;5052123;28;20049;-41
2022/04/11 04:34:14;;;;;;;6.72;2.58;;;2.00;99.90;;;;;;5044403;28;20037;-41
2022/04/11 04:36:41;;;;;;;3.80;2.78;;;2.00;99.90;;;;;;5040241;28;20059;-42
2022/04/11 04:39:08;;;;;;;5.95;2.35;;;2.00;99.90;;;;;;5040012;28;20549;-41
2022/04/11 04:41:34;;;;;;;3.72;3.05;;;2.10;99.90;;;;;;5049348;28;20056;-42
2022/04/11 04:44:01;;;;;;;4.00;2.70;;;2.10;99.90;;;;;;5037762;28;20071;-40
2022/04/11 04:46:28;;;;;;;5.13;2.88;;;2.10;99.90;;;;;;5046377;28;20041;-41
2022/04/11 04:48:57;;;;;;;6.22;3.22;;;2.20;99.90;;;;;;5041676;28;20063;-40
2022/04/11 04:51:24;;;;;;;5.53;3.45;;;2.20;99.90;;;;;;5044408;28;20398;-41
2022/04/11 04:53:50;;;;;;;5.70;3.13;;;2.20;99.90;;;;;;5040045;28;20055;-38
2022/04/11 04:56:22;;;;;;;6.00;2.67;;;2.20;99.90;;;;;;5043056;28;20045;-40
2022/04/11 04:58:50;;;;;;;8.10;3.35;;;2.20;99.90;;;;;;5039131;28;20499;-40
2022/04/11 05:01:17;;;;;;;6.10;2.92;;;2.20;99.90;;;;;;5061716;28;20049;-41
2022/04/11 05:03:44;;;;;;;5.40;2.78;;;2.30;99.90;;;;;;5041334;28;20049;-41
2022/04/11 05:06:12;;;;;;;7.38;2.60;;;2.30;99.90;;;;;;5047952;28;20057;-40
2022/04/11 05:08:39;;;;;;;4.65;2.45;;;2.40;99.90;;;;;;5042323;28;20060;-42
2022/04/11 05:11:05;;;;;;;5.45;3.13;;;2.30;99.90;;;;;;5052345;28;20072;-42
2022/04/11 05:13:32;;;;;;;5.90;2.67;;;2.30;99.90;;;;;;5049570;28;20041;-39
2022/04/11 05:15:59;;;;;;;6.10;3.03;;;2.40;99.90;;;;;;5040795;28;20056;-40
2022/04/11 05:18:25;;;;;;;5.72;2.88;;;2.40;99.90;;;;;;5040799;28;20140;-40
2022/04/11 05:20:52;;;;;;;4.25;2.83;;;2.40;99.90;;;;;;5040973;28;20060;-39
2022/04/11 05:23:20;;;;;;;7.13;2.67;;;2.50;99.90;;;;;;5036047;28;20567;-39
2022/04/11 05:25:47;;;;;;;4.78;2.95;;;2.50;99.90;;;;;;5044825;28;20040;-40
2022/04/11 05:28:14;;;;;;;7.32;3.38;;;2.50;99.90;;;;;;5034946;28;20056;-39
2022/04/11 05:30:41;;;;;;;6.28;2.92;;;2.60;99.90;;;;;;5049849;28;20055;-38
2022/04/11 05:33:08;;;;;;;5.32;2.70;;;2.60;99.90;;;;;;5044158;28;20053;-39
2022/04/11 05:35:35;;;;;;;5.25;3.20;;;2.60;99.90;;;;;;5039173;28;20049;-39
2022/04/11 05:38:01;;;;;;;4.68;3.17;;;2.60;99.90;;;;;;5049453;28;20044;-39
2022/04/11 05:40:30;;;;;;;8.05;3.20;;;2.70;99.90;;;;;;5043130;28;20081;-41
2022/04/11 05:42:56;;;;;;;7.63;3.50;;;2.70;99.90;;;;;;5046205;28;20405;-39
2022/04/11 05:45:23;;;;;;;8.40;3.63;;;2.80;99.90;;;;;;5049776;28;20051;-40
2022/04/11 05:47:50;;;;;;;12.40;4.15;;;2.80;99.90;;;;;;5045601;28;20519;-40
2022/04/11 05:50:16;;;;;;;7.47;3.95;;;2.80;99.90;;;;;;5042112;28;20527;-39
2022/04/11 05:52:44;;;;;;;22.27;4.53;;;2.80;99.90;;;;;;5049040;28;20405;-39
2022/04/11 05:55:11;;;;;;;7.53;3.40;;;2.90;99.90;;;;;;5044268;28;20095;-40
2022/04/11 05:57:39;;;;;;;9.05;3.70;;;2.90;99.90;;;;;;5034258;28;20100;-42
2022/04/11 06:00:07;;;;;;;8.02;3.38;;;2.90;99.90;;;;;;5044804;28;20046;-39
2022/04/11 06:02:34;;;;;;;11.45;3.20;;;3.00;99.90;;;;;;5060939;28;20040;-40
2022/04/11 06:05:00;;;;;;;7.15;2.80;;;3.00;99.90;;;;;;5043700;28;20045;-39
2022/04/11 06:07:30;;;;;;;6.10;3.00;;;3.00;99.90;;;;;;5038870;28;20499;-39
2022/04/11 06:09:57;;;;;;;10.32;3.33;;;3.10;99.90;;;;;;5042192;28;20132;-39
2022/04/11 06:12:24;;;;;;;6.68;3.58;;;3.10;99.90;;;;;;5037109;28;20059;-40
2022/04/11 06:14:54;;;;;;;13.02;3.75;;;3.20;99.90;;;;;;5034239;28;20060;-38
2022/04/11 06:17:23;;;;;;;6.78;3.22;;;3.20;99.90;;;;;;5038307;28;20060;-41
2022/04/11 06:19:50;;;;;;;6.25;3.20;;;3.30;99.90;;;;;;5039972;28;20502;-41
2022/04/11 06:22:17;;;;;;;6.35;3.13;;;3.30;99.90;;;;;;5036854;28;20041;-40
2022/04/11 06:24:44;;;;;;;7.28;3.03;;;3.40;99.90;;;;;;5044177;28;20049;-41
2022/04/11 06:27:10;;;;;;;7.07;3.40;;;3.40;99.90;;;;;;5047417;28;20075;-42
2022/04/11 06:29:37;;;;;;;13.07;3.50;;;3.50;99.90;;;;;;5048335;28;20040;-41
2022/04/11 06:32:06;;;;;;;7.70;3.33;;;3.50;99.90;;;;;;5049694;28;22050;-42
2022/04/11 06:34:33;;;;;;;7.80;3.70;;;3.60;99.90;;;;;;5037251;28;20056;-43
2022/04/11 06:37:00;;;;;;;5.20;3.40;;;3.60;99.90;;;;;;5043102;28;20405;-41
2022/04/11 06:39:27;;;;;;;7.28;3.30;;;3.60;99.90;;;;;;5042448;28;20119;-42
2022/04/11 06:41:54;;;;;;;7.57;3.42;;;3.70;99.90;;;;;;5047423;28;20484;-41
2022/04/11 06:44:20;;;;;;;7.07;3.45;;;3.80;99.90;;;;;;5052968;28;20049;-40
2022/04/11 06:46:47;;;;;;;7.70;3.78;;;3.80;99.90;;;;;;5045074;28;20049;-40
2022/04/11 06:49:15;;;;;;;6.97;3.00;;;3.90;99.90;;;;;;5046333;28;20148;-41
2022/04/11 06:51:42;;;;;;;10.95;3.20;;;3.90;99.90;;;;;;5048040;28;20045;-44
2022/04/11 06:54:08;;;;;;;11.50;4.15;;;4.00;99.90;;;;;;5043012;28;20045;-41
2022/04/11 06:56:35;;;;;;;7.22;4.28;;;4.00;99.90;;;;;;5038598;28;20052;-43
2022/04/11 06:59:02;;;;;;;6.05;3.97;;;4.10;99.90;;;;;;5036365;28;20128;-41
2022/04/11 07:01:29;;;;;;;8.23;3.47;;;4.10;99.90;;;;;;5042767;28;20052;-39
2022/04/11 07:03:56;;;;;;;8.77;3.67;;;4.10;99.90;;;;;;5047946;28;20053;-41
2022/04/11 07:06:24;;;;;;;7.55;3.67;;;4.30;99.90;;;;;;5038694;28;20045;-40
2022/04/11 07:08:50;;;;;;;8.60;3.70;;;4.30;99.90;;;;;;5050205;28;20048;-43
2022/04/11 07:11:17;;;;;;;12.15;4.28;;;4.40;99.90;;;;;;5048267;28;20128;-42
2022/04/11 07:13:44;;;;;;;6.22;4.05;;;4.40;99.90;;;;;;5045576;28;20049;-43
2022/04/11 07:16:10;;;;;;;9.40;3.90;;;4.50;99.90;;;;;;5053745;28;20041;-45
2022/04/11 07:18:37;;;;;;;14.38;4.25;;;4.60;99.90;;;;;;5047960;28;20069;-44
2022/04/11 07:21:04;;;;;;;11.18;4.60;;;4.70;99.90;;;;;;5036932;28;20049;-39
2022/04/11 07:23:32;;;;;;;9.63;4.35;;;4.70;99.90;;;;;;5046694;28;20803;-44
2022/04/11 07:25:59;;;;;;;9.00;4.30;;;4.70;99.90;;;;;;5048193;28;20068;-42
2022/04/11 07:28:25;;;;;;;13.90;5.22;;;4.90;99.90;;;;;;5047734;28;20088;-41
2022/04/11 07:30:52;;;;;;;11.65;4.80;;;4.90;99.90;;;;;;5041506;28;20116;-42
2022/04/11 07:33:19;;;;;;;6.80;4.32;;;5.00;99.90;;;;;;5050518;28;20079;-41
2022/04/11 07:35:45;;;;;;;12.10;4.90;;;5.00;99.90;;;;;;5049101;28;20060;-42
2022/04/11 07:38:12;;;;;;;9.68;4.90;;;5.10;99.90;;;;;;5042953;28;20442;-40
2022/04/11 07:40:40;;;;;;;15.07;5.05;;;5.20;99.90;;;;;;5046252;28;20059;-41
2022/04/11 07:43:07;;;;;;;10.82;4.57;;;5.30;99.90;;;;;;5043897;28;20462;-42
2022/04/11 07:45:34;;;;;;;13.18;4.55;;;5.40;99.90;;;;;;5037547;28;20077;-42
2022/04/11 07:48:00;;;;;;;12.38;4.88;;;5.50;99.90;;;;;;5052106;28;20084;-41
2022/04/11 07:50:27;;;;;;;8.30;4.47;;;5.60;99.90;;;;;;5037122;28;20137;-42
2022/04/11 07:52:54;;;;;;;11.48;4.70;;;5.60;99.90;;;;;;5040576;28;20045;-41
2022/04/11 07:55:21;;;;;;;15.50;5.47;;;5.60;99.90;;;;;;5042430;28;20061;-43
2022/04/11 07:57:50;;;;;;;14.05;5.13;;;5.80;99.90;;;;;;5051821;28;20044;-42
2022/04/11 08:00:17;;;;;;;10.55;4.93;;;5.90;99.90;;;;;;5044232;28;20052;-42
2022/04/11 08:02:44;;;;;;;13.38;5.32;;;6.00;99.90;;;;;;5042554;28;20566;-40
2022/04/11 08:05:11;;;;;;;15.07;5.05;;;6.10;99.90;;;;;;5046484;28;20099;-41
2022/04/11 08:07:37;;;;;;;11.15;5.00;;;6.20;99.90;;;;;;5042938;28;20056;-41
2022/04/11 08:10:05;;;;;;;11.63;5.82;;;6.30;99.90;;;;;;5043243;28;20371;-42
2022/04/11 08:12:32;;;;;;;9.00;4.63;;;6.40;99.90;;;;;;5044807;28;20041;-41
2022/04/11 08:15:00;;;;;;;8.10;5.10;;;6.50;99.90;;;;;;5041305;28;20051;-41
2022/04/11 08:17:27;;;;;;;12.25;5.80;;;6.60;99.90;;;;;;5040141;28;20053;-40
2022/04/11 08:19:54;;;;;;;11.10;5.05;;;6.70;99.90;;;;;;5050433;28;20053;-42
2022/04/11 08:22:20;;;;;;;16.45;5.20;;;6.80;99.90;;;;;;5052173;28;20048;-42
2022/04/11 08:24:47;;;;;;;15.73;5.03;;;6.90;99.90;;;;;;5046882;28;20107;-42
2022/04/11 08:27:15;;;;;;;14.85;5.63;;;7.00;99.90;;;;;;5050300;28;20060;-41
2022/04/11 08:29:43;;;;;;;12.65;5.38;;;7.10;99.90;;;;;;5041633;28;20072;-43
2022/04/11 08:32:12;;;;;;;11.40;4.80;;;7.30;99.90;;;;;;5051973;28;20053;-43
2022/04/11 08:34:39;;;;;;;12.77;5.15;;;7.40;99.90;;;;;;5045336;28;20053;-43
2022/04/11 08:37:05;;;;;;;11.00;4.95;;;7.50;99.90;;;;;;5044040;28;20053;-42
2022/04/11 08:39:32;;;;;;;12.05;5.35;;;7.70;99.90;;;;;;5045354;28;20425;-43
2022/04/11 08:42:01;;;;;;;6.68;4.40;;;7.80;99.90;;;;;;5048649;28;20136;-40
2022/04/11 08:44:27;;;;;;;12.45;4.45;;;8.00;99.90;;;;;;5031688;28;20502;-41
2022/04/11 08:46:55;;;;;;;8.65;4.43;;;8.10;99.90;;;;;;5040200;28;20059;-42
2022/04/11 08:49:23;;;;;;;11.40;4.97;;;8.30;99.90;;;;;;5044016;28;20389;-43
2022/04/11 08:51:49;;;;;;;9.63;5.25;;;8.40;99.90;;;;;;5035574;28;20045;-42
2022/04/11 08:54:16;;;;;;;11.73;4.85;;;8.60;99.90;;;;;;5048902;28;20055;-42
2022/04/11 08:56:43;;;;;;;10.85;4.78;;;8.80;99.90;;;;;;5040818;28;20420;-42
2022/04/11 08:59:09;;;;;;;11.50;5.15;;;9.00;99.90;;;;;;5050719;28;20129;-42
2022/04/11 09:01:36;;;;;;;7.82;4.75;;;9.20;99.90;;;;;;5049689;28;20051;-44
2022/04/11 09:04:03;;;;;;;8.38;4.43;;;9.40;99.90;;;;;;5040707;28;20034;-44
2022/04/11 09:06:34;;;;;;;10.35;4.57;;;9.50;99.90;;;;;;5036022;28;20490;-42
2022/04/11 09:09:02;;;;;;;9.02;4.15;;;9.80;99.90;;;;;;5035157;28;20088;-42
2022/04/11 09:11:33;;;;;;;10.80;3.58;;;10.10;99.90;;;;;;5043068;28;20099;-43
2022/04/11 09:14:01;;;;;;;10.32;4.10;;;10.30;99.00;;;;;;5045575;28;20049;-43
2022/04/11 09:16:28;;;;;;;8.00;3.65;;;10.40;97.50;;;;;;5044268;28;20057;-44
2022/04/11 09:18:55;;;;;;;10.63;3.95;;;10.60;96.60;;;;;;5040214;28;20053;-43
2022/04/11 09:21:23;;;;;;;11.18;4.35;;;10.70;97.10;;;;;;5033322;28;20053;-44
2022/04/11 09:23:52;;;;;;;11.10;4.50;;;10.90;96.00;;;;;;5050344;28;20493;-43
2022/04/11 09:26:20;;;;;;;8.00;3.90;;;11.10;96.00;;;;;;5041813;28;20064;-43
2022/04/11 09:29:00;;;;;;;10.07;4.00;;;11.30;95.00;;;;;;5040258;28;20056;-43
2022/04/11 09:31:26;;;;;;;9.70;3.55;;;11.40;93.70;;;;;;5047063;28;20636;-41
2022/04/11 09:33:53;;;;;;;5.05;2.78;;;11.60;94.10;;;;;;5040437;28;20049;-43
2022/04/11 09:36:21;;;;;;;8.00;3.22;;;11.80;92.90;;;;;;5042786;28;20136;-41
2022/04/11 09:38:59;;;;;;;6.68;2.80;;;11.90;91.70;;;;;;5039300;28;20049;-43
2022/04/11 09:41:29;;;;;;;8.55;3.15;;;12.00;90.30;;;;;;5041613;28;20049;-43
2022/04/11 09:43:56;;;;;;;8.43;2.88;;;12.20;89.70;;;;;;5043230;28;20044;-44
2022/04/11 09:46:23;;;;;;;9.48;3.20;;;12.20;89.00;;;;;;5051521;28;20099;-43
2022/04/11 09:48:51;;;;;;;5.68;2.92;;;12.30;87.00;;;;;;5051687;28;20051;-43
2022/04/11 09:51:18;;;;;;;5.20;2.65;;;12.40;86.40;;;;;;5049883;28;20045;-43
2022/04/11 09:53:45;;;;;;;9.55;3.50;;;12.50;86.40;;;;;;5042361;28;20057;-42
2022/04/11 09:56:13;;;;;;;7.10;3.38;;;12.60;85.70;;;;;;5036609;28;20054;-43
2022/04/11 09:58:40;;;;;;;9.63;3.42;;;12.80;84.00;;;;;;5050392;28;20057;-43
2022/04/11 10:01:08;;;;;;;8.10;3.40;;;12.90;81.80;;;;;;5042114;28;20067;-44
2022/04/11 10:03:34;;;;;;;8.70;3.60;;;13.10;80.90;;;;;;5049725;28;20041;-43
2022/04/11 10:06:01;;;;;;;7.63;3.10;;;13.10;80.50;;;;;;5039241;28;20045;-44
2022/04/11 10:08:28;;;;;;;7.38;2.88;;;13.30;79.20;;;;;;5046922;28;20119;-44
2022/04/11 10:10:55;;;;;;;9.25;3.47;;;13.40;77.10;;;;;;5045270;28;20053;-43
2022/04/11 10:13:23;;;;;;;8.00;3.22;;;13.50;74.70;;;;;;5050289;28;20057;-43
2022/04/11 10:15:50;;;;;;;8.13;3.65;;;13.50;72.70;;;;;;5042530;28;20465;-42
2022/04/11 10:18:19;;;;;;;7.97;3.80;;;13.60;71.20;;;;;;5046624;28;20513;-43
2022/04/11 10:20:48;;;;;;;7.22;3.25;;;13.60;70.10;;;;;;5042869;28;20489;-44
2022/04/11 10:23:19;;;;;;;8.57;4.00;;;13.70;72.00;;;;;;5042982;28;20041;-44
2022/04/11 10:25:47;;;;;;;12.55;4.43;;;13.70;69.60;;;;;;5043061;28;20064;-44
2022/04/11 10:28:15;;;;;;;8.65;4.13;;;13.80;71.00;;;;;;5043061;28;20455;-43
2022/04/11 10:30:43;;;;;;;8.13;4.82;;;13.90;70.90;;;;;;5041524;28;20444;-43
2022/04/11 10:33:10;;;;;;;7.38;4.43;;;14.00;68.90;;;;;;5041452;28;20069;-44
2022/04/11 10:35:40;;;;;;;9.43;5.38;;;14.10;69.90;;;;;;5041446;28;20053;-44
2022/04/11 10:38:08;;;;;;;8.65;5.15;;;14.30;68.70;;;;;;5048519;28;20049;-44
2022/04/11 10:40:36;;;;;;;13.07;5.90;;;14.40;66.40;;;;;;5045616;28;20041;-43
2022/04/11 10:43:13;;;;;;;9.30;5.20;;;14.30;63.30;;;;;;5043187;28;20132;-44
2022/04/11 10:45:42;;;;;;;10.75;5.90;;;14.30;64.30;;;;;;5049501;28;20083;-43
2022/04/11 10:48:10;;;;;;;9.95;5.82;;;14.40;63.90;;;;;;5043816;28;20467;-43
2022/04/11 10:50:38;;;;;;;9.25;5.28;;;14.40;63.60;;;;;;5046359;28;20524;-43
2022/04/11 10:53:09;;;;;;;15.85;5.82;;;14.50;63.60;;;;;;5042462;28;20076;-43
2022/04/11 10:55:36;;;;;;;11.90;6.32;;;14.50;60.50;;;;;;5052141;28;20053;-44
2022/04/11 10:58:04;;;;;;;11.43;5.60;;;14.50;63.30;;;;;;5044490;28;20051;-43
2022/04/11 11:00:31;;;;;;;12.95;6.13;;;14.60;63.00;;;;;;5047813;28;20048;-44
2022/04/11 11:03:09;;;;;;;11.10;6.10;;;14.70;62.90;;;;;;5053637;28;20049;-44
2022/04/11 11:05:38;;;;;;;12.38;6.90;;;14.80;60.40;;;;;;5049964;28;20055;-44
2022/04/11 11:08:27;;;;;;;10.73;6.47;;;14.80;62.30;;;;;;5054802;28;20811;-44
2022/04/11 11:10:55;;;;;;;9.65;6.55;;;15.00;57.30;;;;;;5044347;28;20145;-44
2022/04/11 11:13:28;;;;;;;11.48;7.28;;;15.00;60.50;;;;;;5051000;28;20058;-42
2022/04/11 11:15:55;;;;;;;15.10;7.40;;;15.00;59.10;;;;;;5052148;28;20048;-45
2022/04/11 11:18:23;;;;;;;13.18;6.90;;;15.00;60.20;;;;;;5052497;28;20052;-42
2022/04/11 11:20:53;;;;;;;11.75;7.05;;;15.00;59.00;;;;;;5042004;28;20049;-43
2022/04/11 11:23:25;;;;;;;11.85;7.10;;;15.10;58.50;;;;;;5044031;28;20045;-43
2022/04/11 11:25:52;;;;;;;11.10;6.68;;;15.10;57.50;;;;;;5047676;28;20111;-44
2022/04/11 11:28:19;;;;;;;11.52;6.95;;;15.20;59.50;;;;;;5047282;28;20135;-43
2022/04/11 11:30:46;;;;;;;10.43;6.90;;;15.20;58.90;;;;;;5042493;28;20046;-44
2022/04/11 11:33:14;;;;;;;12.88;7.55;;;15.40;59.10;;;;;;5042493;28;20053;-44
2022/04/11 11:35:49;;;;;;;12.48;7.70;;;15.50;59.50;;;;;;5044631;28;20472;-43
2022/04/11 11:38:17;;;;;;;12.75;7.15;;;15.60;59.20;;;;;;5050111;28;20045;-45
2022/04/11 11:40:58;;;;;;;13.18;7.13;;;15.60;58.20;;;;;;5048393;28;20052;-44
2022/04/11 11:43:25;;;;;;;9.60;7.25;;;15.70;57.70;;;;;;5045313;28;20155;-43
2022/04/11 11:45:52;;;;;;;14.13;7.57;;;15.70;57.50;;;;;;5050312;28;20503;-45
2022/04/11 11:48:23;;;;;;;15.40;7.93;;;15.80;58.80;;;;;;5050817;28;20049;-44
2022/04/11 11:50:51;;;;;;;12.20;7.43;;;16.00;57.90;;;;;;5045508;28;20394;-44
2022/04/11 11:53:18;;;;;;;12.82;6.32;;;16.20;58.40;;;;;;5051278;28;20056;-44
2022/04/11 11:55:52;;;;;;;10.20;6.70;;;16.30;57.60;;;;;;5052904;28;20072;-43
2022/04/11 11:58:19;;;;;;;14.38;6.75;;;16.50;54.80;;;;;;5058323;28;20052;-44
2022/04/11 12:00:47;;;;;;;8.93;6.53;;;16.50;55.90;;;;;;5037303;28;20402;-44
2022/04/11 12:06:00;;;;;;;14.65;7.18;;;16.70;56.70;;;;;;5046908;28;20041;-43
2022/04/11 12:08:30;;;;;;;10.65;6.43;;;16.80;56.40;;;;;;5046552;28;20049;-44
2022/04/11 12:10:57;;;;;;;11.05;7.28;;;16.80;54.40;;;;;;5034834;28;20723;-44
2022/04/11 12:13:24;;;;;;;13.27;7.20;;;16.70;52.70;;;;;;5034582;28;20500;-45
2022/04/11 12:15:50;;;;;;;12.25;6.13;;;16.60;54.30;;;;;;5044213;28;20057;-44
2022/04/11 12:18:17;;;;;;;12.25;6.85;;;16.60;53.50;;;;;;5049137;28;20155;-43
2022/04/11 12:20:44;;;;;;;11.07;7.30;;;16.50;52.90;;;;;;5038118;28;20055;-43
2022/04/11 12:23:13;;;;;;;15.23;7.45;;;16.50;53.40;;;;;;5065701;28;20048;-43
2022/04/11 12:25:41;;;;;;;12.38;7.30;;;16.60;53.90;;;;;;5047260;28;20045;-43
2022/04/11 12:28:13;;;;;;;15.15;7.93;;;16.70;53.10;;;;;;5037797;28;20103;-44
2022/04/11 12:30:41;;;;;;;;;;;16.70;51.90;;;;;;5043387;28;20075;-44
2022/04/11 12:33:08;;;;;;;12.55;7.25;;;16.60;51.30;;;;;;5052083;28;19920;-43
2022/04/11 12:35:36;;;;;;;10.27;7.22;;;16.60;53.30;;;;;;5046737;28;20053;-43
2022/04/11 12:38:07;;;;;;;12.82;6.97;;;16.60;52.10;;;;;;5047031;28;20060;-43
2022/04/11 12:40:45;;;;;;;11.00;6.65;;;16.60;52.50;;;;;;5044949;28;20123;-44
2022/04/11 12:43:13;;;;;;;9.70;6.72;;;16.70;53.20;;;;;;5044426;28;20056;-45
2022/04/11 12:45:40;;;;;;;12.07;7.18;;;16.80;52.30;;;;;;5045129;28;20417;-44
2022/04/11 12:48:07;;;;;;;12.13;7.10;;;16.90;51.80;;;;;;5050306;28;20497;-43
2022/04/11 12:50:34;;;;;;;11.13;6.65;;;16.90;51.00;;;;;;5044541;28;20060;-44
2022/04/11 12:53:01;;;;;;;12.50;6.93;;;16.80;50.60;;;;;;5049054;28;20045;-44
2022/04/11 12:55:28;;;;;;;12.40;6.88;;;16.80;51.10;;;;;;5051525;28;20048;-44